EGTC - Cranfield
Distance from station: E 5mi, 14km
Updated: 04/22/2018 6:50am
Few Clouds
Few Clouds
 Wind from WSW
Wind: WSW 13 mph , 20 km/h
Temperature: 68°F , 20°C
Dew Point: 55°F , 13°C
Humidity: 64%
Barometer: 29.74 inHg , 1007 hPa
Clouds: Few Clouds
Visibility: 6 miles , 10 km
Cloud details: Few Clouds 3600 ft
2018/04/22 13:50 EGTC 221350Z 25011KT 9999 FEW036 20/13 Q1007